Time;durP1;ratioP1;P1;durP2;ratioP2;P2;SDS_P1;SDS_P2;PMS_P1;PMS_P2;Temp;Humidity;BMP_temperature;BMP_pressure;BME280_temperature;BME280_humidity;BME280_pressure;Samples;Min_cycle;Max_cycle;Signal;HPM_P1;HPM_P2
2021/09/12 00:01:10;;;;;;;;;0.00;0.00;;;;;;;;6370055;22;46948;-82
2021/09/12 00:03:35;;;;;;;;;5.00;5.00;;;;;;;;6370058;22;46932;-82
2021/09/12 00:06:00;;;;;;;;;0.00;0.00;;;;;;;;6371078;22;47618;-82
2021/09/12 00:08:26;;;;;;;;;0.00;0.00;;;;;;;;6371554;22;46916;-82
2021/09/12 00:10:51;;;;;;;;;0.00;0.00;;;;;;;;6371730;22;46912;-82
2021/09/12 00:13:16;;;;;;;;;0.00;0.00;;;;;;;;6371138;22;46956;-82
2021/09/12 00:15:42;;;;;;;;;0.00;0.00;;;;;;;;6370999;22;47626;-82
2021/09/12 00:18:07;;;;;;;;;10.00;10.00;;;;;;;;6371384;22;46702;-82
2021/09/12 00:20:32;;;;;;;;;0.00;0.00;;;;;;;;6371324;22;46894;-82
2021/09/12 00:22:58;;;;;;;;;0.00;0.00;;;;;;;;6371726;22;47275;-82
2021/09/12 00:25:23;;;;;;;;;0.00;0.00;;;;;;;;6371242;22;46896;-82
2021/09/12 00:27:48;;;;;;;;;0.00;0.00;;;;;;;;6342125;22;47665;-82
2021/09/12 00:30:14;;;;;;;;;0.00;0.00;;;;;;;;6371474;22;47025;-82
2021/09/12 00:32:39;;;;;;;;;0.00;0.00;;;;;;;;6371623;22;46807;-82
2021/09/12 00:35:05;;;;;;;;;0.00;0.00;;;;;;;;6371439;22;47792;-82
2021/09/12 00:37:30;;;;;;;;;0.00;0.00;;;;;;;;6371065;22;46907;-82
2021/09/12 00:39:56;;;;;;;;;0.00;0.00;;;;;;;;6371298;22;46930;-82
2021/09/12 00:42:21;;;;;;;;;0.00;0.00;;;;;;;;6371260;22;46834;-82
2021/09/12 00:44:47;;;;;;;;;0.00;0.00;;;;;;;;6370498;22;46863;-82
2021/09/12 00:47:13;;;;;;;;;0.00;0.00;;;;;;;;6371232;22;46941;-82
2021/09/12 00:49:39;;;;;;;;;0.00;0.00;;;;;;;;6342187;22;46836;-82
2021/09/12 00:52:07;;;;;;;;;0.00;0.00;;;;;;;;6371573;22;47104;-82
2021/09/12 00:54:33;;;;;;;;;0.00;0.00;;;;;;;;6371067;22;46964;-82
2021/09/12 00:56:59;;;;;;;;;0.00;0.00;;;;;;;;6342953;22;46982;-81
2021/09/12 00:59:25;;;;;;;;;0.00;0.00;;;;;;;;6371117;22;46937;-81
2021/09/12 01:01:51;;;;;;;;;0.00;0.00;;;;;;;;6371672;22;46777;-82
2021/09/12 01:04:16;;;;;;;;;0.00;0.00;;;;;;;;6371026;22;48020;-82
2021/09/12 01:06:42;;;;;;;;;0.00;0.00;;;;;;;;6371523;22;46812;-82
2021/09/12 01:09:07;;;;;;;;;0.00;0.00;;;;;;;;6371455;22;46937;-82
2021/09/12 01:11:33;;;;;;;;;0.00;0.00;;;;;;;;6371480;22;47088;-82
2021/09/12 01:13:58;;;;;;;;;0.00;0.00;;;;;;;;6370384;22;46769;-82
2021/09/12 01:16:24;;;;;;;;;0.00;0.00;;;;;;;;6370920;22;46886;-82
2021/09/12 01:18:49;;;;;;;;;0.00;0.00;;;;;;;;6371215;22;46768;-82
2021/09/12 01:21:17;;;;;;;;;0.00;0.00;;;;;;;;6342812;22;46733;-82
2021/09/12 01:23:43;;;;;;;;;0.00;0.00;;;;;;;;6371043;22;46775;-82
2021/09/12 01:26:08;;;;;;;;;0.00;0.00;;;;;;;;6370939;22;47023;-82
2021/09/12 01:28:34;;;;;;;;;0.00;0.00;;;;;;;;6370487;22;46918;-82
2021/09/12 01:31:00;;;;;;;;;0.00;0.00;;;;;;;;6371360;22;46955;-82
2021/09/12 01:33:26;;;;;;;;;0.00;0.00;;;;;;;;6371087;22;47496;-82
2021/09/12 01:35:51;;;;;;;;;0.00;0.00;;;;;;;;6371053;22;46800;-82
2021/09/12 01:38:16;;;;;;;;;0.00;0.00;;;;;;;;6371094;22;46815;-82
2021/09/12 01:40:42;;;;;;;;;0.00;0.00;;;;;;;;6371236;22;47268;-82
2021/09/12 01:43:07;;;;;;;;;0.00;0.00;;;;;;;;6370653;22;46933;-82
2021/09/12 01:45:32;;;;;;;;;0.00;0.00;;;;;;;;6370613;22;46882;-82
2021/09/12 01:48:01;;;;;;;;;0.00;0.00;;;;;;;;6371136;22;46987;-82
2021/09/12 01:50:27;;;;;;;;;0.00;0.00;;;;;;;;6371206;22;47121;-82
2021/09/12 01:52:53;;;;;;;;;0.00;0.00;;;;;;;;6370951;22;46826;-82
2021/09/12 01:55:19;;;;;;;;;0.00;0.00;;;;;;;;6371142;22;46953;-82
2021/09/12 01:57:44;;;;;;;;;0.00;0.00;;;;;;;;6370410;22;46915;-82
2021/09/12 02:00:09;;;;;;;;;0.00;0.00;;;;;;;;6370995;22;46918;-82
2021/09/12 02:02:35;;;;;;;;;0.00;0.00;;;;;;;;6370752;22;47829;-82
2021/09/12 02:05:01;;;;;;;;;0.00;0.00;;;;;;;;6370807;22;46910;-82
2021/09/12 02:07:26;;;;;;;;;0.00;0.00;;;;;;;;6370940;22;46934;-82
2021/09/12 02:09:51;;;;;;;;;0.00;0.00;;;;;;;;6371127;22;46870;-82
2021/09/12 02:12:17;;;;;;;;;0.00;0.00;;;;;;;;6370332;22;46993;-81
2021/09/12 02:14:42;;;;;;;;;0.00;0.00;;;;;;;;6370476;22;46874;-82
2021/09/12 02:17:07;;;;;;;;;0.00;0.00;;;;;;;;6370785;22;46932;-82
2021/09/12 02:19:32;;;;;;;;;0.00;0.00;;;;;;;;6371298;22;47179;-82
2021/09/12 02:21:58;;;;;;;;;0.00;0.00;;;;;;;;6341924;22;47014;-82
2021/09/12 02:24:23;;;;;;;;;0.00;0.00;;;;;;;;6370954;22;46673;-82
2021/09/12 02:26:48;;;;;;;;;0.00;0.00;;;;;;;;6370900;22;46834;-82
2021/09/12 02:29:14;;;;;;;;;0.00;0.00;;;;;;;;6370564;22;47202;-82
2021/09/12 02:31:39;;;;;;;;;0.00;0.00;;;;;;;;6370761;22;46989;-82
2021/09/12 02:34:04;;;;;;;;;0.00;0.00;;;;;;;;6370800;22;46790;-81
2021/09/12 02:36:30;;;;;;;;;0.00;0.00;;;;;;;;6370756;22;46639;-82
2021/09/12 02:38:55;;;;;;;;;0.00;0.00;;;;;;;;6371334;22;46737;-82
2021/09/12 02:41:21;;;;;;;;;0.00;0.00;;;;;;;;6370587;22;46966;-81
2021/09/12 02:43:46;;;;;;;;;0.00;0.00;;;;;;;;6341372;22;46825;-82
2021/09/12 02:46:12;;;;;;;;;0.00;0.00;;;;;;;;6370955;22;46777;-82
2021/09/12 02:48:37;;;;;;;;;0.00;0.00;;;;;;;;6371033;22;47137;-81
2021/09/12 02:51:03;;;;;;;;;1.00;1.00;;;;;;;;6370273;22;47822;-81
2021/09/12 02:53:28;;;;;;;;;0.00;0.00;;;;;;;;6342098;22;46998;-81
2021/09/12 02:55:53;;;;;;;;;0.00;0.00;;;;;;;;6370837;22;46810;-82
2021/09/12 02:58:18;;;;;;;;;0.00;0.00;;;;;;;;6370515;22;46785;-82
2021/09/12 03:00:44;;;;;;;;;0.00;0.00;;;;;;;;6370646;22;46902;-81
2021/09/12 03:03:09;;;;;;;;;0.00;0.00;;;;;;;;6370572;22;46810;-81
2021/09/12 03:05:34;;;;;;;;;0.00;0.00;;;;;;;;6370651;22;47098;-82
2021/09/12 03:08:00;;;;;;;;;0.00;0.00;;;;;;;;6370688;22;46900;-82
2021/09/12 03:10:25;;;;;;;;;0.00;0.00;;;;;;;;6370349;22;46832;-82
2021/09/12 03:12:50;;;;;;;;;0.00;0.00;;;;;;;;6370145;22;46886;-82
2021/09/12 03:15:16;;;;;;;;;0.00;0.00;;;;;;;;6341942;22;46885;-82
2021/09/12 03:17:41;;;;;;;;;0.00;0.00;;;;;;;;6341770;22;47010;-82
2021/09/12 03:20:07;;;;;;;;;0.00;0.00;;;;;;;;6370334;22;47834;-82
2021/09/12 03:22:32;;;;;;;;;0.00;0.00;;;;;;;;6370120;22;46974;-82
2021/09/12 03:24:57;;;;;;;;;0.00;0.00;;;;;;;;6370637;22;46776;-81
2021/09/12 03:27:23;;;;;;;;;0.00;0.00;;;;;;;;6370302;22;46834;-82
2021/09/12 03:29:48;;;;;;;;;0.00;0.00;;;;;;;;6370409;22;46897;-82
2021/09/12 03:32:13;;;;;;;;;0.00;0.00;;;;;;;;6370379;22;46831;-82
2021/09/12 03:34:38;;;;;;;;;0.00;0.00;;;;;;;;6370334;22;46733;-82
2021/09/12 03:37:04;;;;;;;;;0.00;0.00;;;;;;;;6370411;22;46879;-82
2021/09/12 03:39:29;;;;;;;;;0.00;0.00;;;;;;;;6341660;22;49409;-82
2021/09/12 03:41:55;;;;;;;;;0.00;0.00;;;;;;;;6371610;22;46708;-82
2021/09/12 03:44:20;;;;;;;;;0.00;0.00;;;;;;;;6370773;22;46757;-81
2021/09/12 03:46:45;;;;;;;;;0.00;0.00;;;;;;;;6371912;22;47233;-82
2021/09/12 03:49:11;;;;;;;;;0.00;0.00;;;;;;;;6371081;22;47675;-82
2021/09/12 03:51:36;;;;;;;;;0.00;0.00;;;;;;;;6371503;22;46655;-82
2021/09/12 03:54:01;;;;;;;;;0.00;0.00;;;;;;;;6371497;22;46849;-82
2021/09/12 03:56:27;;;;;;;;;0.00;0.00;;;;;;;;6371982;22;46690;-82
2021/09/12 03:58:53;;;;;;;;;0.00;0.00;;;;;;;;6371096;22;47044;-81
2021/09/12 04:01:18;;;;;;;;;0.00;0.00;;;;;;;;6371576;22;46962;-81
2021/09/12 04:03:43;;;;;;;;;0.75;0.75;;;;;;;;6371610;22;46871;-81
2021/09/12 04:06:09;;;;;;;;;0.00;0.00;;;;;;;;6371887;22;46842;-81
2021/09/12 04:08:34;;;;;;;;;7.00;7.00;;;;;;;;6371126;22;47123;-81
2021/09/12 04:10:59;;;;;;;;;0.00;0.00;;;;;;;;6371835;22;46889;-82
2021/09/12 04:13:25;;;;;;;;;0.00;0.00;;;;;;;;6371338;22;46868;-82
2021/09/12 04:15:50;;;;;;;;;0.00;0.00;;;;;;;;6343081;22;47265;-82
2021/09/12 04:18:16;;;;;;;;;0.00;0.00;;;;;;;;6371573;22;46974;-82
2021/09/12 04:20:41;;;;;;;;;0.00;0.00;;;;;;;;6371450;22;46853;-82
2021/09/12 04:23:06;;;;;;;;;0.00;0.00;;;;;;;;6371757;22;46933;-82
2021/09/12 04:25:32;;;;;;;;;0.00;0.00;;;;;;;;6371768;22;46855;-81
2021/09/12 04:27:57;;;;;;;;;0.00;0.00;;;;;;;;6371159;22;47587;-82
2021/09/12 04:30:22;;;;;;;;;0.00;0.00;;;;;;;;6371378;22;46710;-82
2021/09/12 04:32:48;;;;;;;;;0.00;0.00;;;;;;;;6371135;22;47089;-82
2021/09/12 04:35:13;;;;;;;;;0.00;0.00;;;;;;;;6371793;22;46742;-81
2021/09/12 04:37:38;;;;;;;;;0.00;0.00;;;;;;;;6371038;22;47857;-81
2021/09/12 04:40:04;;;;;;;;;0.00;0.00;;;;;;;;6371245;22;46950;-81
2021/09/12 04:42:30;;;;;;;;;0.00;0.00;;;;;;;;6370667;22;46772;-81
2021/09/12 04:44:55;;;;;;;;;0.00;0.00;;;;;;;;6371552;22;46831;-81
2021/09/12 04:47:20;;;;;;;;;0.00;0.00;;;;;;;;6371470;22;46789;-81
2021/09/12 04:49:46;;;;;;;;;0.00;0.00;;;;;;;;6371398;22;46819;-80
2021/09/12 04:52:11;;;;;;;;;0.00;0.00;;;;;;;;6371403;22;46653;-81
2021/09/12 04:54:37;;;;;;;;;0.00;0.00;;;;;;;;6371790;22;46674;-80
2021/09/12 04:57:02;;;;;;;;;0.00;0.00;;;;;;;;6371214;22;46677;-80
2021/09/12 04:59:29;;;;;;;;;0.00;0.00;;;;;;;;6370952;22;46901;-80
2021/09/12 05:01:54;;;;;;;;;0.00;0.00;;;;;;;;6371326;22;46823;-80
2021/09/12 05:04:19;;;;;;;;;0.00;0.00;;;;;;;;6371411;22;46834;-81
2021/09/12 05:06:45;;;;;;;;;0.00;0.00;;;;;;;;6371271;22;47773;-80
2021/09/12 05:09:10;;;;;;;;;0.00;0.00;;;;;;;;6342399;22;47040;-80
2021/09/12 05:11:35;;;;;;;;;0.00;0.00;;;;;;;;6342603;22;46777;-80
2021/09/12 05:14:01;;;;;;;;;0.00;0.00;;;;;;;;6370699;22;46917;-80
2021/09/12 05:16:26;;;;;;;;;0.00;0.00;;;;;;;;6371118;22;48135;-80
2021/09/12 05:18:51;;;;;;;;;2.00;2.00;;;;;;;;6342177;22;47044;-81
2021/09/12 05:21:17;;;;;;;;;0.00;0.00;;;;;;;;6371469;22;46988;-81
2021/09/12 05:23:42;;;;;;;;;0.00;0.00;;;;;;;;6371705;22;46832;-81
2021/09/12 05:26:08;;;;;;;;;0.00;0.00;;;;;;;;6371217;22;47792;-81
2021/09/12 05:28:34;;;;;;;;;0.00;0.00;;;;;;;;6370748;22;46780;-81
2021/09/12 05:30:59;;;;;;;;;0.00;0.00;;;;;;;;6371042;22;46965;-81
2021/09/12 05:33:25;;;;;;;;;0.00;0.00;;;;;;;;6370921;22;46760;-81
2021/09/12 05:35:50;;;;;;;;;0.00;0.00;;;;;;;;6370806;22;48053;-81
2021/09/12 05:38:15;;;;;;;;;0.00;0.00;;;;;;;;6371276;22;46746;-81
2021/09/12 05:40:41;;;;;;;;;0.00;0.00;;;;;;;;6342474;22;46993;-81
2021/09/12 05:43:06;;;;;;;;;0.00;0.00;;;;;;;;6370894;22;46735;-81
2021/09/12 05:45:31;;;;;;;;;0.00;0.00;;;;;;;;6336803;22;48678;-81
2021/09/12 05:47:56;;;;;;;;;0.00;0.00;;;;;;;;6339421;22;46826;-81
2021/09/12 05:50:22;;;;;;;;;0.00;0.00;;;;;;;;6339470;22;46790;-81
2021/09/12 05:52:47;;;;;;;;;0.00;0.00;;;;;;;;6339612;22;47164;-80
2021/09/12 05:55:12;;;;;;;;;0.00;0.00;;;;;;;;6339137;22;47080;-80
2021/09/12 05:57:38;;;;;;;;;0.00;0.00;;;;;;;;6338816;22;46749;-81
2021/09/12 06:00:07;;;;;;;;;0.00;0.00;;;;;;;;6339161;22;46970;-81
2021/09/12 06:02:33;;;;;;;;;0.00;0.00;;;;;;;;6338219;22;46768;-81
2021/09/12 06:05:02;;;;;;;;;0.00;0.00;;;;;;;;6336837;22;48041;-81
2021/09/12 06:07:27;;;;;;;;;0.00;0.00;;;;;;;;6336477;22;46982;-80
2021/09/12 06:09:53;;;;;;;;;0.00;0.00;;;;;;;;6338863;22;46782;-80
2021/09/12 06:12:18;;;;;;;;;0.00;0.00;;;;;;;;6338293;22;47029;-81
2021/09/12 06:14:43;;;;;;;;;0.00;0.00;;;;;;;;6338977;22;46761;-81
2021/09/12 06:17:09;;;;;;;;;0.00;0.00;;;;;;;;6338490;22;46967;-81
2021/09/12 06:19:34;;;;;;;;;0.00;0.00;;;;;;;;6339249;22;47008;-81
2021/09/12 06:22:00;;;;;;;;;0.00;0.00;;;;;;;;6339144;22;46926;-81
2021/09/12 06:24:25;;;;;;;;;0.00;0.00;;;;;;;;6338755;22;47071;-81
2021/09/12 06:26:50;;;;;;;;;0.00;0.00;;;;;;;;6339392;22;46787;-80
2021/09/12 06:29:16;;;;;;;;;0.00;0.00;;;;;;;;6343882;22;46970;-81
2021/09/12 06:31:41;;;;;;;;;0.00;0.00;;;;;;;;6339431;22;46815;-82
2021/09/12 06:34:06;;;;;;;;;0.00;0.00;;;;;;;;6339135;22;47876;-82
2021/09/12 06:36:32;;;;;;;;;0.00;0.00;;;;;;;;6338825;22;46891;-81
2021/09/12 06:38:57;;;;;;;;;0.00;0.00;;;;;;;;6336938;22;46805;-84
2021/09/12 06:41:22;;;;;;;;;0.00;0.00;;;;;;;;6339219;22;46770;-83
2021/09/12 06:43:48;;;;;;;;;0.00;0.00;;;;;;;;6336493;22;46992;-81
2021/09/12 06:46:13;;;;;;;;;0.00;0.00;;;;;;;;6370617;22;46919;-82
2021/09/12 06:48:38;;;;;;;;;0.00;0.00;;;;;;;;6370613;22;46760;-81
2021/09/12 06:51:04;;;;;;;;;0.00;0.00;;;;;;;;6370662;22;46734;-82
2021/09/12 06:53:29;;;;;;;;;0.00;0.00;;;;;;;;6341957;22;48126;-83
2021/09/12 06:55:54;;;;;;;;;0.00;0.00;;;;;;;;6370454;22;46779;-83
2021/09/12 06:58:20;;;;;;;;;0.00;0.00;;;;;;;;6341182;22;47074;-83
2021/09/12 07:00:45;;;;;;;;;0.00;0.00;;;;;;;;6370609;22;46711;-83
2021/09/12 07:03:11;;;;;;;;;0.00;0.00;;;;;;;;6370168;22;46713;-83
2021/09/12 07:05:37;;;;;;;;;0.00;0.00;;;;;;;;6370430;22;46757;-83
2021/09/12 07:08:02;;;;;;;;;0.00;0.00;;;;;;;;6370648;22;46705;-82
2021/09/12 07:10:28;;;;;;;;;0.00;0.00;;;;;;;;6370849;22;46639;-82
2021/09/12 07:12:53;;;;;;;;;0.00;0.00;;;;;;;;6369948;22;47523;-82
2021/09/12 07:15:18;;;;;;;;;0.00;0.00;;;;;;;;6370174;22;46939;-82
2021/09/12 07:17:44;;;;;;;;;0.00;0.00;;;;;;;;6370593;22;46853;-82
2021/09/12 07:20:09;;;;;;;;;0.00;0.00;;;;;;;;6371166;22;47207;-82
2021/09/12 07:22:35;;;;;;;;;12.00;12.00;;;;;;;;6370467;22;47808;-81
2021/09/12 07:25:00;;;;;;;;;0.00;0.00;;;;;;;;6370326;22;46922;-82
2021/09/12 07:27:25;;;;;;;;;0.00;0.00;;;;;;;;6370155;22;46791;-82
2021/09/12 07:29:51;;;;;;;;;0.00;0.00;;;;;;;;6370934;22;46851;-83
2021/09/12 07:32:16;;;;;;;;;0.00;0.00;;;;;;;;6370533;22;46954;-82
2021/09/12 07:34:41;;;;;;;;;0.00;0.00;;;;;;;;6370286;22;46939;-83
2021/09/12 07:37:07;;;;;;;;;0.00;0.00;;;;;;;;6370426;22;46860;-81
2021/09/12 07:39:32;;;;;;;;;0.00;0.00;;;;;;;;6370792;22;46776;-82
2021/09/12 07:41:58;;;;;;;;;0.00;0.00;;;;;;;;6370347;22;46847;-82
2021/09/12 07:44:25;;;;;;;;;0.00;0.00;;;;;;;;6369490;22;46878;-82
2021/09/12 07:46:51;;;;;;;;;0.00;0.00;;;;;;;;6341687;22;46715;-82
2021/09/12 07:49:16;;;;;;;;;0.00;0.00;;;;;;;;6370852;22;46790;-83
2021/09/12 07:51:41;;;;;;;;;0.00;0.00;;;;;;;;6370165;22;46795;-83
2021/09/12 07:54:07;;;;;;;;;0.00;0.00;;;;;;;;6342102;22;46987;-81
2021/09/12 07:56:32;;;;;;;;;0.00;0.00;;;;;;;;6373578;22;47261;-82
2021/09/12 07:58:57;;;;;;;;;0.00;0.00;;;;;;;;6369968;22;46975;-82
2021/09/12 08:01:23;;;;;;;;;0.00;0.00;;;;;;;;6340896;22;48188;-82
2021/09/12 08:03:48;;;;;;;;;0.00;0.00;;;;;;;;6370226;22;46859;-81
2021/09/12 08:06:14;;;;;;;;;0.00;0.00;;;;;;;;6370606;22;47075;-82
2021/09/12 08:08:39;;;;;;;;;0.00;0.00;;;;;;;;6370668;22;47227;-82
2021/09/12 08:11:04;;;;;;;;;0.00;0.00;;;;;;;;6370217;22;47630;-81
2021/09/12 08:13:30;;;;;;;;;0.00;0.00;;;;;;;;6369493;22;46985;-80
2021/09/12 08:15:55;;;;;;;;;0.00;0.00;;;;;;;;6370160;22;47378;-81
2021/09/12 08:18:22;;;;;;;;;0.00;0.00;;;;;;;;6341636;22;47256;-82
2021/09/12 08:20:47;;;;;;;;;0.00;0.00;;;;;;;;6369816;22;47618;-82
2021/09/12 08:23:13;;;;;;;;;0.00;0.00;;;;;;;;6370169;22;46953;-82
2021/09/12 08:25:38;;;;;;;;;0.00;0.00;;;;;;;;6370721;22;47067;-82
2021/09/12 08:28:03;;;;;;;;;0.00;0.00;;;;;;;;6371437;22;46654;-82
2021/09/12 08:30:29;;;;;;;;;0.00;0.00;;;;;;;;6371307;22;46796;-81
2021/09/12 08:32:54;;;;;;;;;0.00;0.00;;;;;;;;6371240;22;46872;-82
2021/09/12 08:35:19;;;;;;;;;0.00;0.00;;;;;;;;6371567;22;46869;-81
2021/09/12 08:37:45;;;;;;;;;0.00;0.00;;;;;;;;6371817;22;46796;-83
2021/09/12 08:40:10;;;;;;;;;0.00;0.00;;;;;;;;6371349;22;46949;-83
2021/09/12 08:42:36;;;;;;;;;0.00;0.00;;;;;;;;6370936;22;46935;-81
2021/09/12 08:45:02;;;;;;;;;0.00;0.00;;;;;;;;6371127;22;47013;-82
2021/09/12 08:47:31;;;;;;;;;0.00;0.00;;;;;;;;6371811;22;46824;-83
2021/09/12 08:49:56;;;;;;;;;0.00;0.00;;;;;;;;6371448;22;47745;-81
2021/09/12 08:52:24;;;;;;;;;0.00;0.00;;;;;;;;6371557;22;47028;-82
2021/09/12 08:54:49;;;;;;;;;0.00;0.00;;;;;;;;6371001;22;46970;-81
2021/09/12 08:57:16;;;;;;;;;0.00;0.00;;;;;;;;6370757;22;47051;-82
2021/09/12 08:59:47;;;;;;;;;0.00;0.00;;;;;;;;6371153;22;47718;-83
2021/09/12 09:05:26;;;;;;;;;0.00;0.00;;;;;;;;6371292;22;46922;-80
2021/09/12 09:08:01;;;;;;;;;0.00;0.00;;;;;;;;6371883;22;46855;-80
2021/09/12 09:10:27;;;;;;;;;0.00;0.00;;;;;;;;6371030;22;46870;-80
2021/09/12 09:12:55;;;;;;;;;0.00;0.00;;;;;;;;6370709;22;46843;-80
2021/09/12 09:15:21;;;;;;;;;0.00;0.00;;;;;;;;6371387;22;46717;-80
2021/09/12 09:17:47;;;;;;;;;0.00;0.00;;;;;;;;6371510;22;47158;-80
2021/09/12 09:20:29;;;;;;;;;0.00;0.00;;;;;;;;6371347;22;46802;-80
2021/09/12 09:22:57;;;;;;;;;0.00;0.00;;;;;;;;6371208;22;46771;-80
2021/09/12 09:25:23;;;;;;;;;0.00;0.00;;;;;;;;6371174;22;46792;-80
2021/09/12 09:27:52;;;;;;;;;0.00;0.00;;;;;;;;6371051;22;47112;-80
2021/09/12 09:30:18;;;;;;;;;0.00;0.00;;;;;;;;6370891;22;47089;-80
2021/09/12 09:32:43;;;;;;;;;0.00;0.00;;;;;;;;6371025;22;46873;-80
2021/09/12 09:35:11;;;;;;;;;0.00;0.00;;;;;;;;6342706;22;46758;-80
2021/09/12 09:37:45;;;;;;;;;0.00;0.00;;;;;;;;6371205;22;47012;-80
2021/09/12 09:40:10;;;;;;;;;0.00;0.00;;;;;;;;6371268;22;46972;-80
2021/09/12 09:42:37;;;;;;;;;0.00;0.00;;;;;;;;6370580;22;46840;-80
2021/09/12 09:45:10;;;;;;;;;0.00;0.00;;;;;;;;6370048;22;47108;-80
2021/09/12 09:47:37;;;;;;;;;0.00;0.00;;;;;;;;6343155;22;46850;-80
2021/09/12 09:50:04;;;;;;;;;0.00;0.00;;;;;;;;6371340;22;47722;-80
2021/09/12 09:52:32;;;;;;;;;0.00;0.00;;;;;;;;6341847;22;46935;-80
2021/09/12 09:54:58;;;;;;;;;0.00;0.00;;;;;;;;6371074;22;46829;-80
2021/09/12 09:57:24;;;;;;;;;0.00;0.00;;;;;;;;6342416;22;47282;-80
2021/09/12 09:59:51;;;;;;;;;0.00;0.00;;;;;;;;6371032;22;46827;-80
2021/09/12 10:02:16;;;;;;;;;0.00;0.00;;;;;;;;6370982;22;46807;-80
2021/09/12 10:04:42;;;;;;;;;0.00;0.00;;;;;;;;6371195;22;46898;-80
2021/09/12 10:07:08;;;;;;;;;0.00;0.00;;;;;;;;6371016;22;46704;-80
2021/09/12 10:09:34;;;;;;;;;0.00;0.00;;;;;;;;6370908;22;47674;-80
2021/09/12 10:12:00;;;;;;;;;0.00;0.00;;;;;;;;6370326;22;46973;-80
2021/09/12 10:14:30;;;;;;;;;0.00;0.00;;;;;;;;6341478;22;46944;-80
2021/09/12 10:23:12;;;;;;;;;0.00;0.00;;;;;;;;6154349;23;47075;-79
2021/09/12 10:25:49;;;;;;;;;0.00;0.00;;;;;;;;6325023;22;46988;-81
2021/09/12 10:28:31;;;;;;;;;0.00;0.00;;;;;;;;6370321;22;46821;-81
2021/09/12 10:30:58;;;;;;;;;0.00;0.00;;;;;;;;6371000;22;46919;-78
2021/09/12 10:33:25;;;;;;;;;0.00;0.00;;;;;;;;6370932;22;46906;-79
2021/09/12 10:35:51;;;;;;;;;0.00;0.00;;;;;;;;6370787;22;46916;-79
2021/09/12 10:38:23;;;;;;;;;0.00;0.00;;;;;;;;6371172;22;47022;-79
2021/09/12 10:40:49;;;;;;;;;0.00;0.00;;;;;;;;6370678;22;47950;-79
2021/09/12 10:43:26;;;;;;;;;0.00;0.00;;;;;;;;6369610;22;46756;-79
2021/09/12 10:46:01;;;;;;;;;0.00;0.00;;;;;;;;6370207;22;46771;-79
2021/09/12 10:48:27;;;;;;;;;0.00;0.00;;;;;;;;6369027;22;46778;-78
2021/09/12 10:50:53;;;;;;;;;0.00;0.00;;;;;;;;6370638;22;46796;-77
2021/09/12 10:53:38;;;;;;;;;0.00;0.00;;;;;;;;6370486;22;46970;-78
2021/09/12 10:56:04;;;;;;;;;0.00;0.00;;;;;;;;6370576;22;46896;-79
2021/09/12 10:58:31;;;;;;;;;0.00;0.00;;;;;;;;6371365;22;46843;-79
2021/09/12 11:00:57;;;;;;;;;0.00;0.00;;;;;;;;6371134;22;47853;-76
2021/09/12 11:03:23;;;;;;;;;0.00;0.00;;;;;;;;6370984;22;46844;-78
2021/09/12 11:05:48;;;;;;;;;0.00;0.00;;;;;;;;6341614;22;46915;-78
2021/09/12 11:08:14;;;;;;;;;0.00;0.00;;;;;;;;6370794;22;46832;-78
2021/09/12 11:10:40;;;;;;;;;0.00;0.00;;;;;;;;6370526;22;47036;-78
2021/09/12 11:13:06;;;;;;;;;0.00;0.00;;;;;;;;6369432;22;46773;-78
2021/09/12 11:15:31;;;;;;;;;0.00;0.00;;;;;;;;6370645;22;46896;-78
2021/09/12 11:17:57;;;;;;;;;0.00;0.00;;;;;;;;6370665;22;46916;-79
2021/09/12 11:20:37;;;;;;;;;0.00;0.00;;;;;;;;6341750;22;48602;-79
2021/09/12 11:23:02;;;;;;;;;0.00;0.00;;;;;;;;6370821;22;46847;-80
2021/09/12 11:25:29;;;;;;;;;0.00;0.00;;;;;;;;6342156;22;46924;-80
2021/09/12 11:28:01;;;;;;;;;0.00;0.00;;;;;;;;6370723;22;47197;-81
2021/09/12 11:30:27;;;;;;;;;0.00;0.00;;;;;;;;6370494;22;47563;-80
2021/09/12 11:32:52;;;;;;;;;0.00;0.00;;;;;;;;6370286;22;46909;-80
2021/09/12 11:35:17;;;;;;;;;0.00;0.00;;;;;;;;6369689;22;46865;-80
2021/09/12 11:37:43;;;;;;;;;0.00;0.00;;;;;;;;6370650;22;46894;-80
2021/09/12 11:40:08;;;;;;;;;0.00;0.00;;;;;;;;6370426;22;46861;-80
2021/09/12 11:42:34;;;;;;;;;0.00;0.00;;;;;;;;6369793;22;46887;-80
2021/09/12 11:44:59;;;;;;;;;80.67;38.33;;;;;;;;6369371;22;46751;-79
2021/09/12 11:47:26;;;;;;;;;67.25;32.50;;;;;;;;6369744;22;46727;-80
2021/09/12 11:52:54;;;;;;;;;0.00;0.00;;;;;;;;6369467;22;46882;-81
2021/09/12 11:55:23;;;;;;;;;14.50;7.50;;;;;;;;6369722;22;46941;-81
2021/09/12 11:58:03;;;;;;;;;29.50;17.00;;;;;;;;6369633;22;46711;-80
2021/09/12 12:00:29;;;;;;;;;21.00;9.50;;;;;;;;6369464;22;47844;-81
2021/09/12 12:02:54;;;;;;;;;29.50;15.75;;;;;;;;6371160;22;46693;-80
2021/09/12 12:05:20;;;;;;;;;23.50;14.75;;;;;;;;6370917;22;46653;-81
2021/09/12 12:07:45;;;;;;;;;30.75;15.00;;;;;;;;6371304;22;46747;-81
2021/09/12 12:10:28;;;;;;;;;18.00;9.00;;;;;;;;6370834;22;47084;-81
2021/09/12 12:12:53;;;;;;;;;27.25;11.00;;;;;;;;6370536;22;46870;-80
2021/09/12 12:15:29;;;;;;;;;20.50;11.00;;;;;;;;6371200;22;46782;-81
2021/09/12 12:17:54;;;;;;;;;24.00;11.75;;;;;;;;6342423;22;47429;-81
2021/09/12 12:20:20;;;;;;;;;21.50;10.75;;;;;;;;6342362;22;48269;-81
2021/09/12 12:22:45;;;;;;;;;20.50;11.25;;;;;;;;6370768;22;46760;-80
2021/09/12 12:25:11;;;;;;;;;15.00;9.75;;;;;;;;6370480;22;46852;-81
2021/09/12 12:27:41;;;;;;;;;14.00;2.75;;;;;;;;6370932;22;46735;-80
2021/09/12 12:30:07;;;;;;;;;13.00;8.00;;;;;;;;6370955;22;47145;-80
2021/09/12 12:32:32;;;;;;;;;14.75;8.25;;;;;;;;6370679;22;46914;-80
2021/09/12 12:34:59;;;;;;;;;23.25;14.25;;;;;;;;6370613;22;46941;-80
2021/09/12 12:37:33;;;;;;;;;20.00;10.25;;;;;;;;6341870;22;46830;-80
2021/09/12 12:40:06;;;;;;;;;28.50;13.50;;;;;;;;6370695;22;46874;-81
2021/09/12 12:42:32;;;;;;;;;15.25;8.75;;;;;;;;6369792;22;46769;-80
2021/09/12 12:44:57;;;;;;;;;18.00;6.25;;;;;;;;6370540;22;46947;-80
2021/09/12 12:47:29;;;;;;;;;25.75;16.75;;;;;;;;6371188;22;47163;-80
2021/09/12 12:49:58;;;;;;;;;16.25;10.75;;;;;;;;6371023;22;46937;-80
2021/09/12 12:52:26;;;;;;;;;16.75;12.00;;;;;;;;6370943;22;46946;-80
2021/09/12 12:54:54;;;;;;;;;15.00;8.25;;;;;;;;6370908;22;46856;-80
2021/09/12 12:57:19;;;;;;;;;11.25;9.00;;;;;;;;6370466;22;47051;-80
2021/09/12 12:59:46;;;;;;;;;15.50;8.00;;;;;;;;6342139;22;49135;-80
2021/09/12 13:02:11;;;;;;;;;9.75;6.75;;;;;;;;6370539;22;46859;-80
2021/09/12 13:04:36;;;;;;;;;13.00;7.75;;;;;;;;6371180;22;46910;-81
2021/09/12 13:07:03;;;;;;;;;16.25;11.00;;;;;;;;6371129;22;46871;-80
2021/09/12 13:09:28;;;;;;;;;15.50;9.50;;;;;;;;6342095;22;48240;-81
2021/09/12 13:11:54;;;;;;;;;15.75;9.75;;;;;;;;6369179;22;46901;-80
2021/09/12 13:14:19;;;;;;;;;13.50;9.00;;;;;;;;6370703;22;47020;-80
2021/09/12 13:16:45;;;;;;;;;10.25;7.25;;;;;;;;6341894;22;46885;-81
2021/09/12 13:19:10;;;;;;;;;18.50;13.75;;;;;;;;6370645;22;46862;-80
2021/09/12 13:21:35;;;;;;;;;8.50;6.25;;;;;;;;6370060;22;46812;-80
2021/09/12 13:24:01;;;;;;;;;23.00;8.75;;;;;;;;6370501;22;47019;-79
2021/09/12 13:26:26;;;;;;;;;9.50;4.50;;;;;;;;6370423;22;46893;-80
2021/09/12 13:28:51;;;;;;;;;11.75;8.25;;;;;;;;6369999;22;47630;-80
2021/09/12 13:31:17;;;;;;;;;12.00;7.50;;;;;;;;6370517;22;46732;-81
2021/09/12 13:33:47;;;;;;;;;10.00;7.75;;;;;;;;6370691;22;46748;-81
2021/09/12 13:36:13;;;;;;;;;9.75;8.25;;;;;;;;6370002;22;47749;-81
2021/09/12 13:38:38;;;;;;;;;5.25;2.50;;;;;;;;6370862;22;46934;-81
2021/09/12 13:41:03;;;;;;;;;8.50;3.75;;;;;;;;6370547;22;46997;-81
2021/09/12 13:43:30;;;;;;;;;5.00;4.75;;;;;;;;6370267;22;46829;-80
2021/09/12 13:45:55;;;;;;;;;8.75;6.25;;;;;;;;6370112;22;46693;-81
2021/09/12 13:48:21;;;;;;;;;5.25;5.00;;;;;;;;6369939;22;46985;-81
2021/09/12 13:50:46;;;;;;;;;10.25;8.00;;;;;;;;6370449;22;46784;-81
2021/09/12 13:53:20;;;;;;;;;7.50;5.50;;;;;;;;6370505;22;46817;-92
2021/09/12 13:55:46;;;;;;;;;7.25;5.50;;;;;;;;6370212;22;46927;-81
2021/09/12 13:58:11;;;;;;;;;8.75;7.00;;;;;;;;6369943;22;47654;-81
2021/09/12 14:00:38;;;;;;;;;4.75;4.25;;;;;;;;6370555;22;46823;-80
2021/09/12 14:03:03;;;;;;;;;9.25;6.00;;;;;;;;6370502;22;46816;-81
2021/09/12 14:05:28;;;;;;;;;7.75;6.00;;;;;;;;6370617;22;46695;-81
2021/09/12 14:07:54;;;;;;;;;36.75;19.00;;;;;;;;6370528;22;47614;-80
2021/09/12 14:10:19;;;;;;;;;6.50;5.25;;;;;;;;6370536;22;46814;-81
2021/09/12 14:12:44;;;;;;;;;3.50;3.50;;;;;;;;6370299;22;46935;-81
2021/09/12 14:15:10;;;;;;;;;4.25;4.00;;;;;;;;6370681;22;47052;-81
2021/09/12 14:17:35;;;;;;;;;2.25;1.25;;;;;;;;6341893;22;48393;-82
2021/09/12 14:20:01;;;;;;;;;3.25;2.25;;;;;;;;6370519;22;46882;-80
2021/09/12 14:22:26;;;;;;;;;6.75;5.75;;;;;;;;6370096;22;47011;-81
2021/09/12 14:24:51;;;;;;;;;8.00;5.75;;;;;;;;6369976;22;46865;-80
2021/09/12 14:27:17;;;;;;;;;6.75;6.25;;;;;;;;6369753;22;46939;-80
2021/09/12 14:29:42;;;;;;;;;6.00;6.00;;;;;;;;6370520;22;46765;-79
2021/09/12 14:32:08;;;;;;;;;6.75;6.25;;;;;;;;6341932;22;46890;-80
2021/09/12 14:34:37;;;;;;;;;2.25;2.25;;;;;;;;6370704;22;46837;-80
2021/09/12 14:37:06;;;;;;;;;4.75;4.75;;;;;;;;6369951;22;47626;-80
2021/09/12 14:39:31;;;;;;;;;6.75;6.00;;;;;;;;6370287;22;46957;-80
2021/09/12 14:41:57;;;;;;;;;3.50;3.50;;;;;;;;6370281;22;46926;-80
2021/09/12 14:44:22;;;;;;;;;10.00;5.50;;;;;;;;6370536;22;46884;-80
2021/09/12 14:46:47;;;;;;;;;6.25;6.25;;;;;;;;6341866;22;48477;-80